createdAt,value
2022-10-25T00:02:17.929Z,17.00
2022-10-25T00:04:45.180Z,16.90
2022-10-25T00:07:11.972Z,16.90
2022-10-25T00:09:38.911Z,16.90
2022-10-25T00:12:05.906Z,16.80
2022-10-25T00:14:32.755Z,16.80
2022-10-25T00:16:59.443Z,16.90
2022-10-25T00:19:26.544Z,16.80
2022-10-25T00:21:53.287Z,16.80
2022-10-25T00:24:19.879Z,16.90
2022-10-25T00:26:46.548Z,16.90
2022-10-25T00:29:13.277Z,16.90
2022-10-25T00:31:40.022Z,16.80
2022-10-25T00:34:06.652Z,16.90
2022-10-25T00:36:33.320Z,17.00
2022-10-25T00:39:00.131Z,17.00
2022-10-25T00:41:30.442Z,17.00
2022-10-25T00:44:35.599Z,16.90
2022-10-25T00:47:17.905Z,16.90
2022-10-25T00:49:46.693Z,17.00
2022-10-25T00:52:13.556Z,16.90
2022-10-25T00:54:45.095Z,16.90
2022-10-25T00:57:18.836Z,16.90
2022-10-25T00:59:47.051Z,16.90
2022-10-25T01:02:16.159Z,16.90
2022-10-25T01:04:43.695Z,17.00
2022-10-25T01:07:10.431Z,16.90
2022-10-25T01:09:39.432Z,16.90
2022-10-25T01:12:06.485Z,16.90
2022-10-25T01:14:40.211Z,16.90
2022-10-25T01:17:32.137Z,16.90
2022-10-25T01:20:22.607Z,16.80
2022-10-25T01:23:00.889Z,16.80
2022-10-25T01:26:03.412Z,16.90
2022-10-25T01:29:01.172Z,16.90
2022-10-25T01:31:42.315Z,16.80
2022-10-25T01:34:23.176Z,16.80
2022-10-25T01:37:03.556Z,16.70
2022-10-25T01:39:39.504Z,16.80
2022-10-25T01:42:24.147Z,16.70
2022-10-25T01:45:03.722Z,16.70
2022-10-25T01:47:38.283Z,16.70
2022-10-25T01:50:23.681Z,16.70
2022-10-25T01:52:50.530Z,16.80
2022-10-25T01:55:19.683Z,16.80
2022-10-25T01:58:03.863Z,16.80
2022-10-25T02:00:36.268Z,16.80
2022-10-25T02:03:24.937Z,16.80
2022-10-25T02:06:23.725Z,16.80
2022-10-25T02:09:05.880Z,16.80
2022-10-25T02:11:33.685Z,16.80
2022-10-25T02:14:18.483Z,16.80
2022-10-25T02:16:53.482Z,16.80
2022-10-25T02:19:27.417Z,16.80
2022-10-25T02:21:54.982Z,16.80
2022-10-25T02:24:26.402Z,16.90
2022-10-25T02:26:55.048Z,16.80
2022-10-25T02:29:23.852Z,16.90
2022-10-25T02:31:50.721Z,16.80
2022-10-25T02:34:19.078Z,16.90
2022-10-25T02:36:50.241Z,16.80
2022-10-25T02:39:18.349Z,16.90
2022-10-25T02:41:44.947Z,16.80
2022-10-25T02:44:11.560Z,16.80
2022-10-25T02:46:38.208Z,16.80
2022-10-25T02:49:05.044Z,16.80
2022-10-25T02:51:32.204Z,16.70
2022-10-25T02:53:58.856Z,16.70
2022-10-25T02:56:25.705Z,16.70
2022-10-25T02:58:56.568Z,16.70
2022-10-25T03:01:24.023Z,16.80
2022-10-25T03:03:50.864Z,16.80
2022-10-25T03:06:18.151Z,16.70
2022-10-25T03:08:46.167Z,16.70
2022-10-25T03:11:16.021Z,16.70
2022-10-25T03:13:42.668Z,16.60
2022-10-25T03:16:09.735Z,16.70
2022-10-25T03:18:36.428Z,16.60
2022-10-25T03:21:04.249Z,16.60
2022-10-25T03:23:32.828Z,16.70
2022-10-25T03:26:00.585Z,16.70
2022-10-25T03:28:28.492Z,16.70
2022-10-25T03:30:56.742Z,16.70
2022-10-25T03:33:23.928Z,16.80
2022-10-25T03:35:52.162Z,16.80
2022-10-25T03:38:18.965Z,16.70
2022-10-25T03:40:45.646Z,16.70
2022-10-25T03:43:12.444Z,16.70
2022-10-25T03:45:39.274Z,16.70
2022-10-25T03:48:06.083Z,16.70
2022-10-25T03:50:32.748Z,16.70
2022-10-25T03:53:00.186Z,16.60
2022-10-25T03:55:26.905Z,16.70
2022-10-25T03:57:53.520Z,16.70
2022-10-25T04:00:20.198Z,16.60
2022-10-25T04:02:46.916Z,16.60
2022-10-25T04:05:13.577Z,16.70
2022-10-25T04:07:40.186Z,16.70
2022-10-25T04:10:07.149Z,16.70
2022-10-25T04:12:33.800Z,16.70
2022-10-25T04:15:00.462Z,16.70
2022-10-25T04:17:27.134Z,16.50
2022-10-25T04:19:53.733Z,16.60
2022-10-25T04:22:20.410Z,16.60
2022-10-25T04:24:47.039Z,16.70
2022-10-25T04:27:13.687Z,16.70
2022-10-25T04:29:40.348Z,16.60
2022-10-25T04:32:07.221Z,16.60
2022-10-25T04:34:33.847Z,16.70
2022-10-25T04:37:00.556Z,16.60
2022-10-25T04:39:27.180Z,16.60
2022-10-25T04:41:53.821Z,16.60
2022-10-25T04:44:20.437Z,16.70
2022-10-25T04:46:48.804Z,16.60
2022-10-25T04:49:17.165Z,16.70
2022-10-25T04:51:44.003Z,16.70
2022-10-25T04:54:12.753Z,16.70
2022-10-25T04:56:39.397Z,16.70
2022-10-25T04:59:06.406Z,16.60
2022-10-25T05:01:33.151Z,16.60
2022-10-25T05:03:59.906Z,16.60
2022-10-25T05:06:27.593Z,16.70
2022-10-25T05:08:54.874Z,16.70
2022-10-25T05:11:23.561Z,16.60
2022-10-25T05:13:50.573Z,16.60
2022-10-25T05:16:22.400Z,16.60
2022-10-25T05:18:50.802Z,16.60
2022-10-25T05:21:18.425Z,16.50
2022-10-25T05:23:45.532Z,16.50
2022-10-25T05:26:18.005Z,16.50
2022-10-25T05:28:46.331Z,16.60
2022-10-25T05:31:17.439Z,16.70
2022-10-25T05:33:47.546Z,16.60
2022-10-25T05:36:15.160Z,16.60
2022-10-25T05:38:42.249Z,16.70
2022-10-25T05:41:11.154Z,16.60
2022-10-25T05:43:37.879Z,16.60
2022-10-25T05:46:14.138Z,16.60
2022-10-25T05:48:45.767Z,16.60
2022-10-25T05:51:33.495Z,16.70
2022-10-25T05:54:03.239Z,16.70
2022-10-25T05:56:31.401Z,16.70
2022-10-25T05:58:58.411Z,16.70
2022-10-25T06:01:29.054Z,16.70
2022-10-25T06:03:56.085Z,16.60
2022-10-25T06:06:23.255Z,16.60
2022-10-25T06:08:50.422Z,16.60
2022-10-25T06:11:19.438Z,16.60
2022-10-25T06:13:46.877Z,16.50
2022-10-25T06:16:16.176Z,16.60
2022-10-25T06:18:43.147Z,16.70
2022-10-25T06:21:18.401Z,16.70
2022-10-25T06:23:46.479Z,16.70
2022-10-25T06:26:21.206Z,16.60
2022-10-25T06:28:48.515Z,16.50
2022-10-25T06:31:18.203Z,16.60
2022-10-25T06:33:45.211Z,16.70
2022-10-25T06:36:16.257Z,16.80
2022-10-25T06:38:44.008Z,16.70
2022-10-25T06:41:13.776Z,16.70
2022-10-25T06:43:40.409Z,16.60
2022-10-25T06:46:24.260Z,16.60
2022-10-25T06:48:52.503Z,16.60
2022-10-25T06:51:19.863Z,16.60
2022-10-25T06:53:46.476Z,16.70
2022-10-25T06:56:15.109Z,16.60
2022-10-25T06:58:42.259Z,16.50
2022-10-25T07:01:12.331Z,16.50
2022-10-25T07:03:39.068Z,16.60
2022-10-25T07:06:07.812Z,16.50
2022-10-25T07:08:35.146Z,16.50
2022-10-25T07:11:02.371Z,16.60
2022-10-25T07:13:31.096Z,16.60
2022-10-25T07:16:05.831Z,16.60
2022-10-25T07:18:33.480Z,16.60
2022-10-25T07:21:05.267Z,16.50
2022-10-25T07:23:32.240Z,16.50
2022-10-25T07:25:59.168Z,16.60
2022-10-25T07:28:26.680Z,16.60
2022-10-25T07:30:53.307Z,16.60
2022-10-25T07:33:20.789Z,16.60
2022-10-25T07:35:59.111Z,16.60
2022-10-25T07:38:35.652Z,16.70
2022-10-25T07:41:02.309Z,16.60
2022-10-25T07:43:29.053Z,16.60
2022-10-25T07:45:55.891Z,16.70
2022-10-25T07:48:23.197Z,16.60
2022-10-25T07:50:50.747Z,16.70
2022-10-25T07:53:17.592Z,16.70
2022-10-25T07:55:54.375Z,16.60
2022-10-25T07:58:21.282Z,16.70
2022-10-25T08:00:48.109Z,16.70
2022-10-25T08:03:16.445Z,16.60
2022-10-25T08:05:45.158Z,16.60
2022-10-25T08:08:12.448Z,16.60
2022-10-25T08:10:39.404Z,16.60
2022-10-25T08:13:06.049Z,16.70
2022-10-25T08:15:32.655Z,16.60
2022-10-25T08:18:00.529Z,16.60
2022-10-25T08:20:49.268Z,16.80
2022-10-25T08:23:15.109Z,16.70
2022-10-25T08:25:41.949Z,16.70
2022-10-25T08:28:08.713Z,16.70
2022-10-25T08:30:35.523Z,16.80
2022-10-25T08:33:02.394Z,16.70
2022-10-25T08:35:29.325Z,16.70
2022-10-25T08:37:55.933Z,16.80
2022-10-25T08:40:36.919Z,16.80
2022-10-25T08:43:22.094Z,16.70
2022-10-25T08:45:56.957Z,16.80
2022-10-25T08:48:30.648Z,16.80
2022-10-25T08:51:07.515Z,16.90
2022-10-25T08:53:42.608Z,16.90
2022-10-25T08:56:17.788Z,16.90
2022-10-25T08:58:49.147Z,16.80
2022-10-25T09:01:22.618Z,16.90
2022-10-25T09:03:49.409Z,16.90
2022-10-25T09:06:15.953Z,17.00
2022-10-25T09:08:54.548Z,16.90
2022-10-25T09:11:48.634Z,16.80
2022-10-25T09:14:22.780Z,16.80
2022-10-25T09:16:56.225Z,16.80
2022-10-25T09:19:44.267Z,16.90
2022-10-25T09:22:30.768Z,16.90
2022-10-25T09:25:09.485Z,17.00
2022-10-25T09:27:47.476Z,16.90
2022-10-25T09:30:14.402Z,17.00
2022-10-25T09:32:46.869Z,17.00
2022-10-25T09:35:39.061Z,17.00
2022-10-25T09:38:12.894Z,16.90
2022-10-25T09:40:50.591Z,17.00
2022-10-25T09:43:21.675Z,16.90
2022-10-25T09:45:51.830Z,17.10
2022-10-25T09:48:46.438Z,17.40
2022-10-25T09:51:31.833Z,17.20
2022-10-25T09:54:04.353Z,17.10
2022-10-25T09:56:30.988Z,17.10
2022-10-25T09:59:01.196Z,17.00
2022-10-25T10:01:29.204Z,17.10
2022-10-25T10:04:20.907Z,17.10
2022-10-25T10:06:48.954Z,17.10
2022-10-25T10:09:16.359Z,17.00
2022-10-25T10:11:46.361Z,17.00
2022-10-25T10:14:39.348Z,16.90
2022-10-25T10:17:11.906Z,17.00
2022-10-25T10:19:38.974Z,17.10
2022-10-25T10:22:16.588Z,17.00
2022-10-25T10:24:44.732Z,17.00
2022-10-25T10:27:24.685Z,17.10
2022-10-25T10:30:05.673Z,17.10
2022-10-25T10:32:35.218Z,17.10
2022-10-25T10:35:06.160Z,17.00
2022-10-25T10:37:34.204Z,17.10
2022-10-25T10:40:22.603Z,17.10
2022-10-25T10:42:49.867Z,17.10
2022-10-25T10:45:18.787Z,17.10
2022-10-25T10:47:51.621Z,17.10
2022-10-25T10:50:24.427Z,17.20
2022-10-25T10:53:03.961Z,17.10
2022-10-25T10:55:46.134Z,17.20
2022-10-25T10:58:19.348Z,17.20
2022-10-25T11:00:59.461Z,17.10
2022-10-25T11:03:53.983Z,17.10
2022-10-25T11:06:36.491Z,17.20
2022-10-25T11:09:12.569Z,17.30
2022-10-25T11:11:40.394Z,17.30
2022-10-25T11:14:17.249Z,17.40
2022-10-25T11:16:53.953Z,17.40
2022-10-25T11:19:41.074Z,17.40
2022-10-25T11:22:33.063Z,17.40
2022-10-25T11:25:23.671Z,17.40
2022-10-25T11:28:06.141Z,17.40
2022-10-25T11:30:54.427Z,17.40
2022-10-25T11:33:34.891Z,17.50
2022-10-25T11:36:30.348Z,17.40
2022-10-25T11:39:23.070Z,17.30
2022-10-25T11:42:01.297Z,17.30
2022-10-25T11:45:02.015Z,17.30
2022-10-25T11:47:43.060Z,17.30
2022-10-25T11:50:20.557Z,17.50
2022-10-25T11:52:59.447Z,17.70
2022-10-25T11:55:57.221Z,17.80
2022-10-25T11:58:42.347Z,18.10
2022-10-25T12:01:35.082Z,18.20
2022-10-25T12:04:07.811Z,18.30
2022-10-25T12:06:46.076Z,18.30
2022-10-25T12:09:29.176Z,18.30
2022-10-25T12:12:01.381Z,18.50
2022-10-25T12:14:36.154Z,18.50
2022-10-25T12:17:06.957Z,18.70
2022-10-25T12:19:43.657Z,18.70
2022-10-25T12:22:18.676Z,18.60
2022-10-25T12:24:49.663Z,18.80
2022-10-25T12:27:19.535Z,18.80
2022-10-25T12:29:58.020Z,18.80
2022-10-25T12:32:32.009Z,19.00
2022-10-25T12:35:00.760Z,18.90
2022-10-25T12:37:55.041Z,19.00
2022-10-25T12:40:26.417Z,19.00
2022-10-25T12:42:59.171Z,18.80
2022-10-25T12:46:15.450Z,18.70
2022-10-25T12:49:06.251Z,18.70
2022-10-25T12:51:58.826Z,18.80
2022-10-25T12:54:43.787Z,18.80
2022-10-25T12:57:25.636Z,18.90
2022-10-25T13:00:04.275Z,18.80
2022-10-25T13:02:45.529Z,18.80
2022-10-25T13:05:50.367Z,18.60
2022-10-25T13:08:19.056Z,18.50
2022-10-25T13:10:56.164Z,18.50
2022-10-25T13:13:25.954Z,18.50
2022-10-25T13:16:01.696Z,18.50
2022-10-25T13:18:34.426Z,18.50
2022-10-25T13:21:03.177Z,18.60
2022-10-25T13:23:56.087Z,18.50
2022-10-25T13:26:27.031Z,18.50
2022-10-25T13:28:56.230Z,18.50
2022-10-25T13:31:46.654Z,18.40
2022-10-25T13:34:13.257Z,18.40
2022-10-25T13:36:59.880Z,18.30
2022-10-25T13:39:33.242Z,18.30
2022-10-25T13:42:10.660Z,18.30
2022-10-25T13:44:52.667Z,18.20
2022-10-25T13:47:40.519Z,18.20
2022-10-25T13:50:33.189Z,18.20
2022-10-25T13:53:22.850Z,18.20
2022-10-25T13:56:24.288Z,18.20
2022-10-25T13:58:52.896Z,18.20
2022-10-25T14:01:20.580Z,18.20
2022-10-25T14:03:48.357Z,18.30
2022-10-25T14:06:27.294Z,18.30
2022-10-25T14:09:34.603Z,18.30
2022-10-25T14:12:01.261Z,18.30
2022-10-25T14:14:58.130Z,18.30
2022-10-25T14:17:30.573Z,18.20
2022-10-25T14:20:30.212Z,18.20
2022-10-25T14:23:01.563Z,18.10
2022-10-25T14:25:35.125Z,18.10
2022-10-25T14:28:16.821Z,18.10
2022-10-25T14:30:46.736Z,18.10
2022-10-25T14:33:37.868Z,18.20
2022-10-25T14:36:24.999Z,18.10
2022-10-25T14:39:00.287Z,18.10
2022-10-25T14:41:33.013Z,18.10
2022-10-25T14:44:00.263Z,18.10
2022-10-25T14:46:30.084Z,18.00
2022-10-25T14:48:58.344Z,18.00
2022-10-25T14:51:37.888Z,18.10
2022-10-25T14:54:08.018Z,18.10
2022-10-25T14:56:40.665Z,18.10
2022-10-25T14:59:19.642Z,18.00
2022-10-25T15:01:56.894Z,18.00
2022-10-25T15:04:30.561Z,18.00
2022-10-25T15:06:57.386Z,18.00
2022-10-25T15:09:53.129Z,18.00
2022-10-25T15:12:10.616Z,18.00
2022-10-25T15:14:37.331Z,17.90
2022-10-25T15:17:06.576Z,18.00
2022-10-25T15:19:53.263Z,17.90
2022-10-25T15:22:19.904Z,17.90
2022-10-25T15:24:48.536Z,17.90
2022-10-25T15:27:39.795Z,17.90
2022-10-25T15:30:06.826Z,17.90
2022-10-25T15:32:33.610Z,17.90
2022-10-25T15:35:01.783Z,17.90
2022-10-25T15:37:29.779Z,17.90
2022-10-25T15:39:57.147Z,17.90
2022-10-25T15:42:25.456Z,17.90
2022-10-25T15:44:52.241Z,17.90
2022-10-25T15:47:25.731Z,17.90
2022-10-25T15:49:53.378Z,17.80
2022-10-25T15:52:20.285Z,17.90
2022-10-25T15:54:46.998Z,17.90
2022-10-25T15:57:13.592Z,17.90
2022-10-25T15:59:40.294Z,17.80
2022-10-25T16:02:20.706Z,17.90
2022-10-25T16:04:47.746Z,17.80
2022-10-25T16:07:15.436Z,17.80
2022-10-25T16:09:42.030Z,17.80
2022-10-25T16:12:16.957Z,17.80
2022-10-25T16:14:43.632Z,17.80
2022-10-25T16:17:15.195Z,17.80
2022-10-25T16:19:41.800Z,17.80
2022-10-25T16:22:08.624Z,17.80
2022-10-25T16:24:35.204Z,17.80
2022-10-25T16:27:01.922Z,17.80
2022-10-25T16:29:29.522Z,17.80
2022-10-25T16:31:56.202Z,17.80
2022-10-25T16:34:22.958Z,17.80
2022-10-25T16:36:50.675Z,17.80
2022-10-25T16:39:17.445Z,17.80
2022-10-25T16:41:45.809Z,17.80
2022-10-25T16:44:15.508Z,17.70
2022-10-25T16:46:42.356Z,17.80
2022-10-25T16:49:11.799Z,17.70
2022-10-25T16:51:39.677Z,17.70
2022-10-25T16:54:07.077Z,17.80
2022-10-25T16:56:34.109Z,17.70
2022-10-25T16:59:00.915Z,17.80
2022-10-25T17:01:32.501Z,17.70
2022-10-25T17:03:59.884Z,17.70
2022-10-25T17:06:40.885Z,17.70
2022-10-25T17:09:08.878Z,17.70
2022-10-25T17:11:36.240Z,17.70
2022-10-25T17:14:03.497Z,17.70
2022-10-25T17:16:30.093Z,17.70
2022-10-25T17:18:57.232Z,17.70
2022-10-25T17:21:23.987Z,17.70
2022-10-25T17:23:50.700Z,17.70
2022-10-25T17:26:17.599Z,17.60
2022-10-25T17:28:44.639Z,17.70
2022-10-25T17:31:14.145Z,17.70
2022-10-25T17:33:42.413Z,17.70
2022-10-25T17:36:12.331Z,17.60
2022-10-25T17:38:39.050Z,17.70
2022-10-25T17:41:05.871Z,17.60
2022-10-25T17:43:34.908Z,17.60
2022-10-25T17:46:10.604Z,17.60
2022-10-25T17:48:37.172Z,17.50
2022-10-25T17:51:09.273Z,17.60
2022-10-25T17:53:36.307Z,17.50
2022-10-25T17:56:18.055Z,17.50
2022-10-25T17:58:46.476Z,17.50
2022-10-25T18:01:15.515Z,17.50
2022-10-25T18:03:42.287Z,17.60
2022-10-25T18:06:11.414Z,17.50
2022-10-25T18:08:38.658Z,17.50
2022-10-25T18:11:13.956Z,17.50
2022-10-25T18:13:41.593Z,17.40
2022-10-25T18:16:10.182Z,17.50
2022-10-25T18:18:37.656Z,17.40
2022-10-25T18:21:05.149Z,17.50
2022-10-25T18:23:32.440Z,17.50
2022-10-25T18:25:59.240Z,17.40
2022-10-25T18:28:25.881Z,17.40
2022-10-25T18:30:57.808Z,17.40
2022-10-25T18:33:25.168Z,17.50
2022-10-25T18:36:00.099Z,17.50
2022-10-25T18:38:27.440Z,17.50
2022-10-25T18:40:54.385Z,17.40
2022-10-25T18:43:21.700Z,17.30
2022-10-25T18:45:48.315Z,17.30
2022-10-25T18:48:15.194Z,17.30
2022-10-25T18:50:42.630Z,17.40
2022-10-25T18:53:09.372Z,17.40
2022-10-25T18:55:35.949Z,17.30
2022-10-25T18:58:02.514Z,17.40
2022-10-25T19:00:31.217Z,17.40
2022-10-25T19:02:58.028Z,17.40
2022-10-25T19:05:28.352Z,17.40
2022-10-25T19:07:55.637Z,17.50
2022-10-25T19:10:23.243Z,17.50
2022-10-25T19:12:51.522Z,17.50
2022-10-25T19:15:18.243Z,17.40
2022-10-25T19:17:45.013Z,17.40
2022-10-25T19:20:12.031Z,17.30
2022-10-25T19:22:38.690Z,17.30
2022-10-25T19:25:05.604Z,17.30
2022-10-25T19:27:32.252Z,17.30
2022-10-25T19:29:58.915Z,17.30
2022-10-25T19:32:25.536Z,17.30
2022-10-25T19:34:52.215Z,17.30
2022-10-25T19:37:19.292Z,17.40
2022-10-25T19:39:45.929Z,17.30
2022-10-25T19:42:12.623Z,17.20
2022-10-25T19:44:39.464Z,17.20
2022-10-25T19:47:06.097Z,17.20
2022-10-25T19:49:32.721Z,17.20
2022-10-25T19:51:59.525Z,17.30
2022-10-25T19:54:26.267Z,17.30
2022-10-25T19:56:55.014Z,17.20
2022-10-25T19:59:21.585Z,17.20
2022-10-25T20:01:49.211Z,17.20
2022-10-25T20:04:15.956Z,17.20
2022-10-25T20:06:42.667Z,17.20
2022-10-25T20:09:12.118Z,17.30
2022-10-25T20:11:41.173Z,17.30
2022-10-25T20:14:10.749Z,17.30
2022-10-25T20:16:37.720Z,17.30
2022-10-25T20:19:07.181Z,17.30
2022-10-25T20:21:38.425Z,17.30
2022-10-25T20:24:10.935Z,17.30
2022-10-25T20:26:44.347Z,17.30
2022-10-25T20:29:22.075Z,17.30
2022-10-25T20:31:53.022Z,17.30
2022-10-25T20:34:20.471Z,17.30
2022-10-25T20:36:47.900Z,17.30
2022-10-25T20:39:15.767Z,17.30
2022-10-25T20:41:43.182Z,17.20
2022-10-25T20:44:10.152Z,17.20
2022-10-25T20:46:36.881Z,17.30
2022-10-25T20:49:04.697Z,17.20
2022-10-25T20:51:31.453Z,17.20
2022-10-25T20:53:58.206Z,17.20
2022-10-25T20:56:25.050Z,17.20
2022-10-25T20:58:52.284Z,17.20
2022-10-25T21:01:19.069Z,17.20
2022-10-25T21:03:45.827Z,17.20
2022-10-25T21:06:14.132Z,17.20
2022-10-25T21:08:40.973Z,17.20
2022-10-25T21:11:09.865Z,17.20
2022-10-25T21:13:37.398Z,17.20
2022-10-25T21:16:09.746Z,17.20
2022-10-25T21:18:37.569Z,17.20
2022-10-25T21:21:15.515Z,17.20
2022-10-25T21:23:42.119Z,17.10
2022-10-25T21:26:09.439Z,17.00
2022-10-25T21:28:40.406Z,17.10
2022-10-25T21:31:10.282Z,17.00
2022-10-25T21:33:37.523Z,17.00
2022-10-25T21:36:09.761Z,17.00
2022-10-25T21:38:36.882Z,17.00
2022-10-25T21:41:08.231Z,17.00
2022-10-25T21:43:35.281Z,16.90
2022-10-25T21:46:05.623Z,16.90
2022-10-25T21:48:33.606Z,16.90
2022-10-25T21:51:00.412Z,17.00
2022-10-25T21:53:27.360Z,16.90
2022-10-25T21:56:12.191Z,17.00
2022-10-25T21:58:40.403Z,17.00
2022-10-25T22:01:12.330Z,17.00
2022-10-25T22:03:39.839Z,17.00
2022-10-25T22:06:08.153Z,17.00
2022-10-25T22:08:34.942Z,17.00
2022-10-25T22:11:23.151Z,17.00
2022-10-25T22:13:58.298Z,17.00
2022-10-25T22:16:24.986Z,17.00
2022-10-25T22:19:00.002Z,17.10
2022-10-25T22:21:28.653Z,17.10
2022-10-25T22:23:55.218Z,17.00
2022-10-25T22:26:22.306Z,17.00
2022-10-25T22:28:53.383Z,17.00
2022-10-25T22:31:20.442Z,16.90
2022-10-25T22:33:52.551Z,16.80
2022-10-25T22:36:20.593Z,16.80
2022-10-25T22:38:47.491Z,16.70
2022-10-25T22:41:16.734Z,16.80
2022-10-25T22:43:44.440Z,16.80
2022-10-25T22:46:13.902Z,16.80
2022-10-25T22:48:42.265Z,16.80
2022-10-25T22:51:10.056Z,16.80
2022-10-25T22:53:37.714Z,16.80
2022-10-25T22:56:04.424Z,16.80
2022-10-25T22:58:33.037Z,16.80
2022-10-25T23:01:11.120Z,16.80
2022-10-25T23:03:45.525Z,16.70
2022-10-25T23:06:14.428Z,16.70
2022-10-25T23:08:41.731Z,16.70
2022-10-25T23:11:17.361Z,16.70
2022-10-25T23:13:44.779Z,16.70
2022-10-25T23:16:13.888Z,16.60
2022-10-25T23:18:41.299Z,16.60
2022-10-25T23:21:15.532Z,16.60
2022-10-25T23:23:42.485Z,16.60
2022-10-25T23:26:16.987Z,16.60
2022-10-25T23:28:43.622Z,16.60
2022-10-25T23:31:12.104Z,16.60
2022-10-25T23:33:39.600Z,16.60
2022-10-25T23:36:13.820Z,16.70
2022-10-25T23:38:40.487Z,16.60
2022-10-25T23:41:07.775Z,16.70
2022-10-25T23:43:35.246Z,16.70
2022-10-25T23:46:02.084Z,16.70
2022-10-25T23:48:28.720Z,16.60
2022-10-25T23:53:33.444Z,16.60
2022-10-25T23:56:00.588Z,16.60
2022-10-25T23:58:27.589Z,16.50
